createdAt,value
2023-10-30T00:00:49.394Z,6.70
2023-10-30T00:03:37.602Z,9.10
2023-10-30T00:06:05.964Z,8.80
2023-10-30T00:08:34.307Z,7.30
2023-10-30T00:11:02.484Z,5.60
2023-10-30T00:13:30.558Z,5.50
2023-10-30T00:15:58.722Z,6.20
2023-10-30T00:18:27.127Z,6.00
2023-10-30T00:20:55.686Z,12.80
2023-10-30T00:23:24.058Z,5.40
2023-10-30T00:25:53.193Z,6.00
2023-10-30T00:28:21.328Z,6.50
2023-10-30T00:30:49.682Z,8.20
2023-10-30T00:33:17.991Z,5.90
2023-10-30T00:35:46.156Z,6.00
2023-10-30T00:38:14.332Z,8.00
2023-10-30T00:40:42.504Z,8.90
2023-10-30T00:43:11.328Z,6.90
2023-10-30T00:45:40.070Z,6.10
2023-10-30T00:48:08.443Z,5.00
2023-10-30T00:50:37.043Z,5.40
2023-10-30T00:53:05.409Z,7.30
2023-10-30T00:55:38.197Z,5.50
2023-10-30T00:58:08.915Z,6.70
2023-10-30T01:00:37.156Z,5.40
2023-10-30T01:03:05.744Z,5.90
2023-10-30T01:05:35.382Z,5.80
2023-10-30T01:08:09.819Z,5.30
2023-10-30T01:10:38.390Z,5.40
2023-10-30T01:13:06.574Z,6.10
2023-10-30T01:15:36.179Z,7.20
2023-10-30T01:18:04.803Z,7.90
2023-10-30T01:20:33.844Z,4.50
2023-10-30T01:23:01.913Z,10.00
2023-10-30T01:25:30.589Z,6.20
2023-10-30T01:27:58.866Z,5.60
2023-10-30T01:30:27.108Z,6.10
2023-10-30T01:32:55.468Z,7.10
2023-10-30T01:35:23.735Z,7.50
2023-10-30T01:37:52.067Z,8.00
2023-10-30T01:40:20.141Z,6.90
2023-10-30T01:42:48.412Z,6.60
2023-10-30T01:45:17.336Z,7.90
2023-10-30T01:47:45.513Z,6.70
2023-10-30T01:50:15.595Z,6.50
2023-10-30T01:52:44.686Z,7.60
2023-10-30T01:55:13.378Z,6.80
2023-10-30T01:57:41.580Z,8.10
2023-10-30T02:00:11.151Z,6.40
2023-10-30T02:02:43.481Z,6.60
2023-10-30T02:05:11.903Z,8.20
2023-10-30T02:07:40.072Z,9.60
2023-10-30T02:10:08.790Z,8.80
2023-10-30T02:12:37.283Z,5.60
2023-10-30T02:15:06.687Z,8.00
2023-10-30T02:17:35.135Z,7.00
2023-10-30T02:20:03.287Z,9.60
2023-10-30T02:22:31.357Z,10.20
2023-10-30T02:25:00.454Z,9.60
2023-10-30T02:27:28.747Z,6.90
2023-10-30T02:29:57.011Z,6.30
2023-10-30T02:32:25.188Z,5.50
2023-10-30T02:34:53.959Z,8.30
2023-10-30T02:37:22.034Z,5.40
2023-10-30T02:39:50.389Z,5.70
2023-10-30T02:42:18.672Z,7.30
2023-10-30T02:44:46.863Z,9.20
2023-10-30T02:47:15.027Z,8.40
2023-10-30T02:49:43.407Z,6.80
2023-10-30T02:52:11.585Z,6.40
2023-10-30T02:54:39.795Z,5.30
2023-10-30T02:57:08.459Z,6.80
2023-10-30T02:59:36.711Z,5.10
2023-10-30T03:02:04.981Z,6.90
2023-10-30T03:04:33.770Z,6.70
2023-10-30T03:07:02.453Z,6.40
2023-10-30T03:09:33.135Z,10.70
2023-10-30T03:12:01.358Z,6.90
2023-10-30T03:14:29.535Z,6.00
2023-10-30T03:16:57.598Z,5.40
2023-10-30T03:19:25.679Z,7.00
2023-10-30T03:21:53.843Z,5.60
2023-10-30T03:24:21.948Z,8.40
2023-10-30T03:26:52.032Z,7.70
2023-10-30T03:29:20.304Z,6.10
2023-10-30T03:31:48.738Z,7.00
2023-10-30T03:34:20.193Z,6.50
2023-10-30T03:36:48.567Z,10.80
2023-10-30T03:39:16.801Z,6.00
2023-10-30T03:41:46.050Z,7.30
2023-10-30T03:44:14.256Z,6.90
2023-10-30T03:46:42.441Z,6.80
2023-10-30T03:49:12.135Z,5.60
2023-10-30T03:51:40.357Z,4.10
2023-10-30T03:54:09.737Z,7.30
2023-10-30T03:56:37.893Z,5.10
2023-10-30T03:59:06.058Z,5.00
2023-10-30T04:01:34.565Z,6.30
2023-10-30T04:04:04.274Z,6.70
2023-10-30T04:06:32.591Z,3.20
2023-10-30T04:09:00.895Z,5.10
2023-10-30T04:11:29.069Z,5.40
2023-10-30T04:13:57.144Z,4.30
2023-10-30T04:16:25.540Z,6.90
2023-10-30T04:18:53.687Z,11.50
2023-10-30T04:21:21.920Z,7.00
2023-10-30T04:23:50.134Z,4.60
2023-10-30T04:26:20.659Z,7.90
2023-10-30T04:28:49.142Z,5.60
2023-10-30T04:31:17.344Z,6.20
2023-10-30T04:33:45.447Z,7.00
2023-10-30T04:36:14.682Z,6.50
2023-10-30T04:38:42.881Z,5.60
2023-10-30T04:41:11.030Z,3.90
2023-10-30T04:43:39.100Z,5.40
2023-10-30T04:46:08.420Z,4.30
2023-10-30T04:48:37.311Z,4.80
2023-10-30T04:51:05.565Z,5.10
2023-10-30T04:53:33.673Z,6.70
2023-10-30T04:56:03.429Z,4.90
2023-10-30T04:58:31.621Z,6.90
2023-10-30T05:01:00.409Z,9.30
2023-10-30T05:03:28.694Z,6.30
2023-10-30T05:05:57.058Z,9.20
2023-10-30T05:08:26.253Z,5.70
2023-10-30T05:10:54.320Z,6.60
2023-10-30T05:13:22.391Z,8.50
2023-10-30T05:15:50.601Z,9.40
2023-10-30T05:18:23.600Z,7.80
2023-10-30T05:20:52.640Z,12.90
2023-10-30T05:23:20.917Z,12.70
2023-10-30T05:25:49.089Z,6.80
2023-10-30T05:28:17.544Z,6.00
2023-10-30T05:30:45.928Z,5.80
2023-10-30T05:33:14.233Z,6.00
2023-10-30T05:35:42.393Z,8.70
2023-10-30T05:38:10.464Z,6.20
2023-10-30T05:40:39.356Z,6.00
2023-10-30T05:43:07.532Z,9.30
2023-10-30T05:45:35.665Z,7.00
2023-10-30T05:48:04.076Z,7.40
2023-10-30T05:50:32.611Z,7.40
2023-10-30T05:53:00.828Z,8.60
2023-10-30T05:55:29.314Z,7.00
2023-10-30T05:57:58.307Z,5.50
2023-10-30T06:00:26.642Z,6.30
2023-10-30T06:02:54.991Z,4.10
2023-10-30T06:05:23.595Z,6.30
2023-10-30T06:07:51.709Z,4.40
2023-10-30T06:10:22.347Z,5.20
2023-10-30T06:12:52.040Z,6.00
2023-10-30T06:15:20.258Z,5.80
2023-10-30T06:17:48.433Z,4.80
2023-10-30T06:20:16.664Z,6.60
2023-10-30T06:22:44.957Z,9.30
2023-10-30T06:25:13.015Z,6.60
2023-10-30T06:27:42.654Z,6.20
2023-10-30T06:30:14.176Z,42.70
2023-10-30T06:32:42.720Z,30.70
2023-10-30T06:35:11.654Z,12.70
2023-10-30T06:37:39.814Z,11.20
2023-10-30T06:40:08.898Z,15.70
2023-10-30T06:42:37.401Z,14.70
2023-10-30T06:45:06.516Z,16.00
2023-10-30T06:47:34.774Z,11.80
2023-10-30T06:50:04.109Z,11.90
2023-10-30T06:52:32.433Z,22.00
2023-10-30T06:55:01.594Z,27.80
2023-10-30T06:57:30.053Z,20.30
2023-10-30T06:59:59.001Z,9.80
2023-10-30T07:02:27.318Z,6.80
2023-10-30T07:04:55.657Z,7.30
2023-10-30T07:07:23.828Z,7.40
2023-10-30T07:09:51.925Z,7.20
2023-10-30T07:12:20.207Z,7.30
2023-10-30T07:14:48.626Z,8.00
2023-10-30T07:17:17.290Z,9.20
2023-10-30T07:19:45.506Z,9.20
2023-10-30T07:22:13.876Z,9.30
2023-10-30T07:24:42.109Z,8.90
2023-10-30T07:27:10.332Z,10.70
2023-10-30T07:29:38.399Z,8.70
2023-10-30T07:32:06.891Z,7.90
2023-10-30T07:34:34.958Z,11.00
2023-10-30T07:37:03.119Z,9.30
2023-10-30T07:39:31.535Z,8.40
2023-10-30T07:41:59.875Z,8.00
2023-10-30T07:44:28.358Z,29.30
2023-10-30T07:46:56.464Z,29.80
2023-10-30T07:49:24.800Z,20.00
2023-10-30T07:51:53.111Z,16.40
2023-10-30T07:54:21.460Z,13.30
2023-10-30T07:56:49.725Z,7.60
2023-10-30T07:59:18.214Z,11.40
2023-10-30T08:01:46.957Z,7.90
2023-10-30T08:04:15.398Z,8.50
2023-10-30T08:06:44.336Z,8.00
2023-10-30T08:09:13.576Z,7.80
2023-10-30T08:11:41.935Z,10.70
2023-10-30T08:14:10.124Z,12.10
2023-10-30T08:16:38.308Z,8.50
2023-10-30T08:19:06.460Z,8.60
2023-10-30T08:21:34.771Z,9.40
2023-10-30T08:24:03.108Z,9.70
2023-10-30T08:26:31.490Z,9.90
2023-10-30T08:28:59.662Z,11.90
2023-10-30T08:31:28.182Z,28.30
2023-10-30T08:33:58.792Z,46.80
2023-10-30T08:36:27.188Z,42.30
2023-10-30T08:38:55.838Z,34.10
2023-10-30T08:41:25.367Z,18.20
2023-10-30T08:43:54.289Z,14.70
2023-10-30T08:46:22.666Z,8.30
2023-10-30T08:48:50.991Z,7.40
2023-10-30T08:51:19.281Z,9.20
2023-10-30T08:53:47.532Z,9.40
2023-10-30T08:56:16.007Z,6.60
2023-10-30T08:58:44.698Z,6.80
2023-10-30T09:01:12.784Z,7.20
2023-10-30T09:03:42.916Z,6.50
2023-10-30T09:06:11.516Z,7.40
2023-10-30T09:08:39.836Z,9.90
2023-10-30T09:11:08.009Z,8.70
2023-10-30T09:13:36.182Z,6.10
2023-10-30T09:16:05.840Z,7.80
2023-10-30T09:18:34.073Z,6.70
2023-10-30T09:21:02.546Z,6.30
2023-10-30T09:23:30.919Z,10.40
2023-10-30T09:25:58.988Z,5.80
2023-10-30T09:28:27.288Z,7.80
2023-10-30T09:30:55.446Z,5.00
2023-10-30T09:33:23.867Z,6.80
2023-10-30T09:35:52.197Z,5.20
2023-10-30T09:38:20.468Z,5.30
2023-10-30T09:40:58.468Z,5.60
2023-10-30T09:43:30.052Z,4.70
2023-10-30T09:46:00.322Z,4.90
2023-10-30T09:48:30.152Z,5.00
2023-10-30T09:51:00.064Z,5.00
2023-10-30T09:53:29.174Z,4.70
2023-10-30T09:55:57.740Z,7.10
2023-10-30T09:58:25.918Z,4.20
2023-10-30T10:00:54.236Z,3.70
2023-10-30T10:03:23.208Z,3.00
2023-10-30T10:05:56.583Z,6.80
2023-10-30T10:08:25.877Z,3.50
2023-10-30T10:11:04.186Z,4.10
2023-10-30T10:13:34.800Z,3.50
2023-10-30T10:16:03.442Z,3.90
2023-10-30T10:18:36.344Z,4.00
2023-10-30T10:21:13.273Z,3.80
2023-10-30T10:23:41.474Z,3.60
2023-10-30T10:26:16.463Z,3.00
2023-10-30T10:28:47.656Z,3.30
2023-10-30T10:31:16.299Z,3.40
2023-10-30T10:33:45.674Z,4.20
2023-10-30T10:36:14.912Z,4.20
2023-10-30T10:38:57.816Z,3.40
2023-10-30T10:41:27.309Z,2.20
2023-10-30T10:43:56.973Z,2.50
2023-10-30T10:46:25.304Z,4.80
2023-10-30T10:48:53.671Z,2.70
2023-10-30T10:51:35.652Z,4.40
2023-10-30T10:54:08.931Z,3.20
2023-10-30T10:56:39.692Z,3.30
2023-10-30T10:59:12.740Z,6.00
2023-10-30T11:01:42.664Z,3.10
2023-10-30T11:04:12.863Z,2.30
2023-10-30T11:06:46.862Z,5.30
2023-10-30T11:09:25.781Z,3.80
2023-10-30T11:11:57.297Z,4.40
2023-10-30T11:14:52.105Z,2.50
2023-10-30T11:17:20.164Z,1.90
2023-10-30T11:19:48.558Z,4.00
2023-10-30T11:22:40.140Z,2.60
2023-10-30T11:25:45.307Z,3.70
2023-10-30T11:28:13.372Z,2.20
2023-10-30T11:30:43.751Z,1.70
2023-10-30T11:33:20.050Z,2.20
2023-10-30T11:36:11.991Z,4.00
2023-10-30T11:39:05.144Z,2.70
2023-10-30T11:41:37.396Z,1.50
2023-10-30T11:44:09.514Z,1.50
2023-10-30T11:46:40.047Z,3.20
2023-10-30T11:49:15.655Z,3.00
2023-10-30T11:51:47.986Z,3.80
2023-10-30T11:54:33.508Z,1.80
2023-10-30T11:57:02.089Z,2.30
2023-10-30T11:59:31.595Z,3.10
2023-10-30T12:02:00.096Z,2.50
2023-10-30T12:04:28.872Z,2.10
2023-10-30T12:06:57.100Z,2.60
2023-10-30T12:09:27.260Z,4.30
2023-10-30T12:11:57.119Z,2.40
2023-10-30T12:14:25.664Z,2.30
2023-10-30T12:16:53.877Z,3.20
2023-10-30T12:19:25.509Z,2.70
2023-10-30T12:21:53.877Z,2.70
2023-10-30T12:24:26.363Z,2.10
2023-10-30T12:26:54.589Z,2.70
2023-10-30T12:29:23.879Z,1.90
2023-10-30T12:32:08.348Z,2.20
2023-10-30T12:34:39.893Z,1.10
2023-10-30T12:37:26.506Z,1.70
2023-10-30T12:40:05.273Z,1.80
2023-10-30T12:42:38.050Z,1.80
2023-10-30T12:45:10.685Z,1.80
2023-10-30T12:47:47.581Z,2.30
2023-10-30T12:50:16.860Z,1.60
2023-10-30T12:52:45.140Z,1.80
2023-10-30T12:55:14.769Z,1.40
2023-10-30T12:57:43.372Z,2.10
2023-10-30T13:00:12.714Z,2.70
2023-10-30T13:02:41.545Z,3.30
2023-10-30T13:05:13.417Z,2.30
2023-10-30T13:07:42.348Z,4.00
2023-10-30T13:10:10.626Z,4.20
2023-10-30T13:12:38.750Z,3.40
2023-10-30T13:15:07.688Z,3.60
2023-10-30T13:17:35.967Z,2.60
2023-10-30T13:20:07.760Z,1.90
2023-10-30T13:22:36.099Z,5.10
2023-10-30T13:25:08.560Z,2.80
2023-10-30T13:27:36.997Z,3.80
2023-10-30T13:30:05.863Z,5.40
2023-10-30T13:32:34.590Z,9.80
2023-10-30T13:35:03.202Z,5.70
2023-10-30T13:37:31.484Z,7.40
2023-10-30T13:39:59.915Z,4.80
2023-10-30T13:42:28.139Z,2.60
2023-10-30T13:44:56.610Z,2.00
2023-10-30T13:47:24.786Z,1.60
2023-10-30T13:49:53.906Z,2.10
2023-10-30T13:52:22.061Z,1.70
2023-10-30T13:54:52.146Z,5.70
2023-10-30T13:57:23.874Z,3.60
2023-10-30T13:59:52.100Z,2.80
2023-10-30T14:02:20.236Z,3.20
2023-10-30T14:04:50.620Z,2.70
2023-10-30T14:07:20.860Z,2.00
2023-10-30T14:12:19.984Z,2.90
2023-10-30T14:14:48.200Z,6.70
2023-10-30T14:17:16.574Z,6.00
2023-10-30T14:19:44.744Z,7.10
2023-10-30T14:22:13.044Z,11.30
2023-10-30T14:24:41.452Z,7.90
2023-10-30T14:27:09.679Z,3.60
2023-10-30T14:29:38.163Z,6.50
2023-10-30T14:32:06.786Z,6.80
2023-10-30T14:34:36.956Z,15.10
2023-10-30T14:37:06.366Z,17.00
2023-10-30T14:39:35.502Z,18.00
2023-10-30T14:42:04.148Z,15.90
2023-10-30T14:44:32.216Z,8.20
2023-10-30T14:47:00.388Z,8.30
2023-10-30T14:49:28.763Z,11.20
2023-10-30T14:51:57.042Z,11.00
2023-10-30T14:54:25.123Z,11.80
2023-10-30T14:56:53.378Z,23.70
2023-10-30T14:59:21.653Z,25.50
2023-10-30T15:01:49.755Z,14.80
2023-10-30T15:04:18.203Z,13.30
2023-10-30T15:06:46.913Z,13.10
2023-10-30T15:09:17.621Z,14.90
2023-10-30T15:11:45.802Z,18.10
2023-10-30T15:14:14.086Z,28.90
2023-10-30T15:16:42.266Z,24.40
2023-10-30T15:19:11.624Z,17.30
2023-10-30T15:21:39.825Z,19.00
2023-10-30T15:24:08.653Z,14.10
2023-10-30T15:26:37.179Z,11.20
2023-10-30T15:29:05.360Z,10.50
2023-10-30T15:31:33.626Z,10.80
2023-10-30T15:34:01.775Z,12.10
2023-10-30T15:36:30.493Z,11.10
2023-10-30T15:38:58.767Z,9.50
2023-10-30T15:41:26.936Z,8.10
2023-10-30T15:43:55.307Z,7.30
2023-10-30T15:46:23.629Z,8.30
2023-10-30T15:48:51.976Z,6.80
2023-10-30T15:51:20.143Z,6.00
2023-10-30T15:58:55.517Z,7.30
2023-10-30T16:01:23.626Z,6.10
2023-10-30T16:03:52.444Z,7.00
2023-10-30T16:06:20.900Z,11.20
2023-10-30T16:08:51.136Z,28.00
2023-10-30T16:13:50.487Z,26.10
2023-10-30T16:16:19.034Z,23.30
2023-10-30T16:21:18.575Z,16.80
2023-10-30T16:23:46.857Z,17.20
2023-10-30T16:26:15.033Z,18.20
2023-10-30T16:28:43.343Z,15.40
2023-10-30T16:31:11.713Z,13.80
2023-10-30T16:33:39.854Z,13.90
2023-10-30T16:36:08.337Z,16.00
2023-10-30T16:38:36.513Z,15.80
2023-10-30T16:41:04.902Z,16.20
2023-10-30T16:43:33.193Z,16.60
2023-10-30T16:46:01.243Z,18.20
2023-10-30T16:48:29.621Z,16.80
2023-10-30T16:50:57.880Z,14.80
2023-10-30T16:53:26.154Z,15.40
2023-10-30T16:55:54.353Z,14.80
2023-10-30T16:58:22.549Z,12.10
2023-10-30T17:00:52.847Z,11.80
2023-10-30T17:03:21.190Z,11.60
2023-10-30T17:05:50.398Z,9.90
2023-10-30T17:08:18.578Z,10.80
2023-10-30T17:10:48.782Z,9.30
2023-10-30T17:15:45.238Z,10.50
2023-10-30T17:18:13.612Z,15.70
2023-10-30T17:20:41.889Z,14.50
2023-10-30T17:23:10.277Z,15.10
2023-10-30T17:25:38.476Z,15.00
2023-10-30T17:28:06.608Z,17.80
2023-10-30T17:30:34.890Z,14.00
2023-10-30T17:33:03.127Z,11.70
2023-10-30T17:35:31.642Z,13.80
2023-10-30T17:38:00.787Z,14.60
2023-10-30T17:40:29.029Z,13.10
2023-10-30T17:42:57.389Z,15.20
2023-10-30T17:45:26.277Z,12.10
2023-10-30T17:47:54.350Z,13.00
2023-10-30T17:50:22.943Z,15.60
2023-10-30T17:52:51.261Z,14.10
2023-10-30T17:55:19.623Z,14.50
2023-10-30T17:57:48.066Z,13.50
2023-10-30T18:00:16.337Z,16.30
2023-10-30T18:02:44.636Z,13.90
2023-10-30T18:05:13.090Z,13.50
2023-10-30T18:07:41.195Z,13.90
2023-10-30T18:10:09.654Z,12.70
2023-10-30T18:12:37.841Z,10.50
2023-10-30T18:15:07.500Z,13.00
2023-10-30T18:17:35.835Z,14.30
2023-10-30T18:20:04.739Z,14.00
2023-10-30T18:22:32.989Z,13.30
2023-10-30T18:25:01.241Z,12.30
2023-10-30T18:27:32.827Z,18.40
2023-10-30T18:30:00.959Z,22.60
2023-10-30T18:32:29.422Z,19.20
2023-10-30T18:34:57.873Z,19.30
2023-10-30T18:37:26.099Z,23.20
2023-10-30T18:39:54.777Z,19.50
2023-10-30T18:42:23.152Z,18.60
2023-10-30T18:44:51.396Z,17.60
2023-10-30T18:47:19.873Z,17.90
2023-10-30T18:49:48.455Z,14.60
2023-10-30T18:52:16.867Z,17.50
2023-10-30T18:54:44.950Z,14.80
2023-10-30T18:57:13.118Z,16.80
2023-10-30T18:59:43.060Z,22.30
2023-10-30T19:02:11.653Z,19.70
2023-10-30T19:04:40.573Z,15.20
2023-10-30T19:07:08.871Z,20.20
2023-10-30T19:09:37.044Z,28.40
2023-10-30T19:12:05.751Z,24.60
2023-10-30T19:14:33.941Z,21.20
2023-10-30T19:17:02.539Z,20.10
2023-10-30T19:19:30.776Z,24.30
2023-10-30T19:21:59.969Z,13.20
2023-10-30T19:24:28.127Z,29.40
2023-10-30T19:26:56.302Z,37.30
2023-10-30T19:29:24.882Z,36.20
2023-10-30T19:31:53.261Z,29.30
2023-10-30T19:34:21.562Z,22.70
2023-10-30T19:36:50.524Z,19.60
2023-10-30T19:39:19.015Z,12.70
2023-10-30T19:41:47.181Z,12.40
2023-10-30T19:44:15.669Z,12.60
2023-10-30T19:46:43.878Z,13.80
2023-10-30T19:49:12.114Z,20.70
2023-10-30T19:51:43.507Z,11.50
2023-10-30T19:54:14.388Z,13.20
2023-10-30T19:56:42.867Z,9.00
2023-10-30T19:59:11.153Z,14.40
2023-10-30T20:01:40.867Z,17.30
2023-10-30T20:04:09.739Z,14.80
2023-10-30T20:06:37.919Z,14.30
2023-10-30T20:09:06.085Z,12.00
2023-10-30T20:11:34.701Z,15.80
2023-10-30T20:14:02.950Z,17.00
2023-10-30T20:16:31.035Z,12.60
2023-10-30T20:18:59.391Z,11.00
2023-10-30T20:21:27.570Z,13.30
2023-10-30T20:23:55.834Z,15.50
2023-10-30T20:26:24.008Z,12.60
2023-10-30T20:28:52.214Z,14.60
2023-10-30T20:31:21.261Z,41.70
2023-10-30T20:33:49.449Z,58.80
2023-10-30T20:36:17.621Z,57.40
2023-10-30T20:38:45.897Z,40.10
2023-10-30T20:41:16.237Z,32.30
2023-10-30T20:46:16.355Z,17.70
2023-10-30T20:48:44.545Z,19.60
2023-10-30T20:51:12.704Z,14.90
2023-10-30T20:53:40.869Z,16.80
2023-10-30T20:56:09.047Z,20.20
2023-10-30T20:58:37.121Z,17.70
2023-10-30T21:01:05.290Z,21.90
2023-10-30T21:03:33.456Z,15.40
2023-10-30T21:06:01.703Z,10.00
2023-10-30T21:08:30.007Z,17.70
2023-10-30T21:10:58.565Z,25.10
2023-10-30T21:13:28.167Z,28.30
2023-10-30T21:15:56.371Z,9.40
2023-10-30T21:18:24.442Z,9.30
2023-10-30T21:20:53.429Z,8.20
2023-10-30T21:23:21.702Z,10.00
2023-10-30T21:25:50.968Z,9.30
2023-10-30T21:28:19.175Z,7.80
2023-10-30T21:30:47.617Z,6.70
2023-10-30T21:33:15.826Z,6.50
2023-10-30T21:35:44.001Z,7.60
2023-10-30T21:38:14.535Z,10.50
2023-10-30T21:40:44.422Z,9.30
2023-10-30T21:43:12.613Z,7.60
2023-10-30T21:45:41.169Z,9.10
2023-10-30T21:48:09.399Z,9.50
2023-10-30T21:50:37.541Z,9.30
2023-10-30T21:53:05.764Z,8.00
2023-10-30T21:55:34.122Z,9.00
2023-10-30T21:58:02.260Z,9.40
2023-10-30T22:00:30.330Z,7.60
2023-10-30T22:02:58.458Z,8.90
2023-10-30T22:05:26.883Z,9.40
2023-10-30T22:07:54.955Z,8.10
2023-10-30T22:10:25.689Z,9.20
2023-10-30T22:12:53.859Z,11.40
2023-10-30T22:15:23.560Z,6.60
2023-10-30T22:17:51.870Z,7.70
2023-10-30T22:20:20.216Z,8.90
2023-10-30T22:22:48.316Z,9.40
2023-10-30T22:25:16.561Z,9.70
2023-10-30T22:27:44.633Z,8.70
2023-10-30T22:30:13.658Z,8.10
2023-10-30T22:32:42.899Z,8.20
2023-10-30T22:35:11.343Z,7.30
2023-10-30T22:37:42.121Z,8.90
2023-10-30T22:40:10.927Z,7.70
2023-10-30T22:42:39.405Z,6.60
2023-10-30T22:45:09.475Z,7.00
2023-10-30T22:47:37.627Z,13.00
2023-10-30T22:50:06.982Z,11.10
2023-10-30T22:52:35.309Z,9.70
2023-10-30T22:55:04.459Z,14.50
2023-10-30T22:57:32.636Z,6.10
2023-10-30T23:00:00.920Z,8.90
2023-10-30T23:02:29.384Z,11.50
2023-10-30T23:04:58.911Z,9.90
2023-10-30T23:07:27.680Z,10.90
2023-10-30T23:09:55.863Z,7.40
2023-10-30T23:12:24.058Z,9.30
2023-10-30T23:14:52.199Z,10.50
2023-10-30T23:17:20.368Z,7.40
2023-10-30T23:19:48.645Z,12.60
2023-10-30T23:22:17.842Z,8.30
2023-10-30T23:24:46.013Z,10.60
2023-10-30T23:27:15.925Z,7.10
2023-10-30T23:29:44.119Z,7.70
2023-10-30T23:32:12.287Z,6.10
2023-10-30T23:34:40.476Z,8.60
2023-10-30T23:37:08.630Z,9.20
2023-10-30T23:39:37.323Z,7.60
2023-10-30T23:42:05.884Z,11.50
2023-10-30T23:44:33.950Z,7.60
2023-10-30T23:47:02.204Z,7.90
2023-10-30T23:49:30.409Z,6.70
2023-10-30T23:51:58.468Z,7.80
2023-10-30T23:54:30.921Z,7.00
2023-10-30T23:57:01.885Z,8.70
2023-10-30T23:59:30.048Z,5.70
